Archival Weather

Tokyo Intl

Tokyo, Japan (RJTT)

Report from: Tuesday, November 21, 2023 11:00 AM JST
Current time: Sunday, February 25, 2024 12:06 AM JST

Current weather – Weather history – Daily summaries
Weather forecast

Temperature13.0°C (55.4°F)
Dew point4.0°C (39.2°F)
Winds 4 kts (2.1 m/s, 4.6 mph) Vrb
Winds variableWinds variable from North-Northeast (20°) to East (80°)
Visibility6.2 mi. (10 km)
Clouds Few clouds 3,000 ft. (914 m)
Scattered clouds 4,500 ft. (1,372 m)
Altimeter30.21 in.Hg (1023 mB)
Relative humidity54 %
Density altitude-446 ft. (-136 m)
Flight conditions Visual Meteorological Conditions
Raw dataRJTT 210200Z 05004KT 020V080 9999 FEW030 SCT045 13/04 Q1023 BECMG 10005KT RMK 1CU030 4SC045 A3023
An error has occurred. This application may no longer respond until reloaded. Reload 🗙